Time;durP1;ratioP1;P1;durP2;ratioP2;P2;SDS_P1;SDS_P2;PMS_P1;PMS_P2;Temp;Humidity;BMP_temperature;BMP_pressure;BME280_temperature;BME280_humidity;BME280_pressure;Samples;Min_cycle;Max_cycle;Signal;HPM_P1;HPM_P2
2021/05/17 00:00:15;;;;;;;8.90;2.40;;;;;;;-144.99;nan;52435.88;5013370;28;20199;-61
2021/05/17 00:02:51;;;;;;;3.83;2.23;;;;;;;-144.99;nan;52423.63;5016850;28;20226;-61
2021/05/17 00:05:24;;;;;;;7.83;3.03;;;;;;;-144.99;nan;52403.25;5021028;28;20209;-62
2021/05/17 00:07:53;;;;;;;7.33;2.73;;;;;;;-144.99;nan;52419.56;5012220;28;20623;-62
2021/05/17 00:10:23;;;;;;;3.60;2.80;;;;;;;-144.99;nan;52417.53;5012908;28;20227;-62
2021/05/17 00:12:53;;;;;;;3.90;2.27;;;;;;;-144.99;nan;52450.13;5012597;28;20731;-62
2021/05/17 00:15:26;;;;;;;7.67;2.97;;;;;;;-144.99;nan;52431.78;5014480;28;20579;-62
2021/05/17 00:17:55;;;;;;;5.53;3.37;;;;;;;-144.99;nan;52407.31;5014168;28;20211;-63
2021/05/17 00:20:23;;;;;;;5.03;2.50;;;;;;;-144.99;nan;52419.56;5007793;28;20740;-64
2021/05/17 00:22:49;;;;;;;4.70;2.87;;;;;;;-144.99;nan;52427.72;5014964;28;20210;-63
2021/05/17 00:25:23;;;;;;;4.20;3.03;;;;;;;-144.99;nan;52439.94;5012989;28;20202;-64
2021/05/17 00:27:51;;;;;;;5.13;3.10;;;;;;;-144.99;nan;52423.63;5013541;28;20211;-62
2021/05/17 00:30:22;;;;;;;4.80;3.27;;;;;;;-144.99;nan;52415.47;5012768;28;20281;-59
2021/05/17 00:32:54;;;;;;;4.30;2.90;;;;;;;-144.99;nan;52399.19;5016903;28;20214;-59
2021/05/17 00:35:21;;;;;;;7.13;3.50;;;;;;;-144.99;nan;52423.63;5013494;28;20207;-59
2021/05/17 00:37:48;;;;;;;6.63;3.20;;;;;;;-144.99;nan;52419.56;5016573;28;20218;-59
2021/05/17 00:40:19;;;;;;;4.57;3.00;;;;;;;-144.99;nan;52419.56;5027650;28;20198;-59
2021/05/17 00:42:52;;;;;;;5.70;2.93;;;;;;;-144.99;nan;52403.25;5008432;28;20218;-59
2021/05/17 00:45:22;;;;;;;3.77;2.53;;;;;;;-144.99;nan;52399.19;5010462;28;20203;-59
2021/05/17 00:47:53;;;;;;;7.00;3.00;;;;;;;-144.99;nan;52407.31;5016412;28;20265;-59
2021/05/17 00:50:22;;;;;;;3.33;2.60;;;;;;;-144.99;nan;52419.56;5015020;28;20696;-57
2021/05/17 00:52:52;;;;;;;4.27;3.03;;;;;;;-144.99;nan;52411.41;5015006;28;20210;-57
2021/05/17 00:55:25;;;;;;;6.07;2.77;;;;;;;-144.99;nan;52435.88;5015790;28;20261;-56
2021/05/17 00:57:53;;;;;;;4.53;2.80;;;;;;;-144.99;nan;52435.88;5016193;28;20207;-58
2021/05/17 01:00:26;;;;;;;9.57;3.47;;;;;;;-144.99;nan;52439.94;5017093;28;20194;-59
2021/05/17 01:02:58;;;;;;;5.37;2.50;;;;;;;-144.99;nan;52403.25;5012130;28;20215;-58
2021/05/17 01:05:24;;;;;;;9.23;2.53;;;;;;;-144.99;nan;52393.06;5016260;28;20300;-60
2021/05/17 01:07:50;;;;;;;3.17;2.30;;;;;;;-144.99;nan;52419.56;5011900;28;20222;-60
2021/05/17 01:10:20;;;;;;;4.00;2.37;;;;;;;-144.99;nan;52419.56;5013445;28;20262;-59
2021/05/17 01:12:52;;;;;;;6.33;3.00;;;;;;;-144.99;nan;52452.16;5012945;28;20210;-60
2021/05/17 01:15:22;;;;;;;5.30;2.60;;;;;;;-144.99;nan;52435.88;5013385;28;20210;-59
2021/05/17 01:17:54;;;;;;;5.40;3.03;;;;;;;-144.99;nan;52441.97;5011352;28;20265;-59
2021/05/17 01:20:21;;;;;;;4.80;3.00;;;;;;;-144.99;nan;52476.63;5006788;28;20206;-58
2021/05/17 01:22:54;;;;;;;4.53;3.03;;;;;;;-144.99;nan;52439.94;5010810;28;20315;-58
2021/05/17 01:25:26;;;;;;;9.90;3.07;;;;;;;-144.99;nan;52456.25;5011622;28;20677;-58
2021/05/17 01:27:55;;;;;;;4.57;3.23;;;;;;;-144.99;nan;52395.09;5016918;28;20215;-58
2021/05/17 01:30:31;;;;;;;5.37;2.97;;;;;;;-144.99;nan;52482.75;5013238;28;20227;-58
2021/05/17 01:33:00;;;;;;;5.77;2.70;;;;;;;-144.99;nan;52391.03;5013411;28;20210;-57
2021/05/17 01:35:32;;;;;;;4.83;2.50;;;;;;;-144.99;nan;52427.72;5011667;28;20304;-58
2021/05/17 01:38:06;;;;;;;5.57;3.40;;;;;;;-144.99;nan;52423.63;5014805;28;20273;-58
2021/05/17 01:40:37;;;;;;;4.73;2.97;;;;;;;-144.99;nan;52431.78;5015771;28;20218;-57
2021/05/17 01:43:10;;;;;;;6.37;2.90;;;;;;;-144.99;nan;52435.88;5012538;28;20210;-58
2021/05/17 01:45:37;;;;;;;4.87;3.00;;;;;;;-144.99;nan;52403.25;5011199;28;20207;-58
2021/05/17 01:48:04;;;;;;;5.20;3.00;;;;;;;-144.99;nan;52395.09;5011200;28;20542;-58
2021/05/17 01:50:31;;;;;;;6.33;4.00;;;;;;;-144.99;nan;52413.44;5013667;28;20230;-58
2021/05/17 01:53:01;;;;;;;4.13;2.77;;;;;;;-144.99;nan;52444.03;5013975;28;20742;-58
2021/05/17 01:55:30;;;;;;;5.17;3.27;;;;;;;-144.99;nan;52431.78;5011489;28;20450;-58
2021/05/17 01:58:22;;;;;;;6.07;3.57;;;;;;;-144.99;nan;52439.94;5015236;28;20215;-58
2021/05/17 02:00:54;;;;;;;3.97;3.13;;;;;;;-144.99;nan;52423.63;5012991;28;20202;-58
2021/05/17 02:03:23;;;;;;;5.57;3.77;;;;;;;-144.99;nan;52419.56;5013610;28;20225;-58
2021/05/17 02:05:53;;;;;;;5.57;3.10;;;;;;;-144.99;nan;52476.63;5013026;28;20217;-59
2021/05/17 02:08:19;;;;;;;7.03;3.97;;;;;;;-144.99;nan;52435.88;5013015;28;20448;-58
2021/05/17 02:10:49;;;;;;;5.90;4.30;;;;;;;-144.99;nan;52421.59;5015516;28;20238;-58
2021/05/17 02:13:18;;;;;;;7.17;3.33;;;;;;;-144.99;nan;52421.59;5012776;28;20202;-61
2021/05/17 02:15:47;;;;;;;4.83;3.00;;;;;;;-144.99;nan;52464.41;5011126;28;20235;-63
2021/05/17 02:18:17;;;;;;;4.40;3.07;;;;;;;-144.99;nan;52368.59;5011120;28;21261;-63
2021/05/17 02:20:48;;;;;;;4.87;3.73;;;;;;;-144.99;nan;52378.78;5010068;28;20242;-63
2021/05/17 02:23:18;;;;;;;5.60;3.37;;;;;;;-144.99;nan;52407.31;5010024;28;20272;-63
2021/05/17 02:25:49;;;;;;;5.53;3.70;;;;;;;-144.99;nan;52415.47;5018928;28;20576;-63
2021/05/17 02:28:17;;;;;;;4.87;3.30;;;;;;;-144.99;nan;52413.44;5010666;28;20230;-63
2021/05/17 02:30:48;;;;;;;4.90;3.47;;;;;;;-144.99;nan;52444.03;5012276;28;20234;-64
2021/05/17 02:33:15;;;;;;;5.07;4.00;;;;;;;-144.99;nan;52407.31;5010008;28;20206;-66
2021/05/17 02:35:42;;;;;;;7.23;3.93;;;;;;;-144.99;nan;52419.56;5011311;28;20210;-64
2021/05/17 02:38:11;;;;;;;6.03;3.80;;;;;;;-144.99;nan;52452.16;5009816;28;20226;-63
2021/05/17 02:40:37;;;;;;;7.97;4.37;;;;;;;-144.99;nan;52405.28;5013750;28;20207;-63
2021/05/17 02:43:12;;;;;;;6.53;4.20;;;;;;;-144.99;nan;52382.88;5010702;28;20217;-62
2021/05/17 02:45:41;;;;;;;7.57;3.70;;;;;;;-144.99;nan;52407.31;5015154;28;20214;-62
2021/05/17 02:48:09;;;;;;;7.47;4.20;;;;;;;-144.99;nan;52411.41;5019621;28;20253;-62
2021/05/17 02:50:43;;;;;;;6.20;3.70;;;;;;;-144.99;nan;52462.34;5010813;28;20227;-61
2021/05/17 02:53:27;;;;;;;6.20;3.97;;;;;;;-144.99;nan;52407.31;5010814;28;20291;-62
2021/05/17 02:55:58;;;;;;;6.13;3.60;;;;;;;-144.99;nan;52425.66;5015285;28;20735;-61
2021/05/17 02:58:31;;;;;;;6.37;4.90;;;;;;;-144.99;nan;52476.63;5012168;28;20237;-61
2021/05/17 03:01:04;;;;;;;7.63;6.33;;;;;;;-144.99;nan;52431.78;5014782;28;20203;-61
2021/05/17 03:03:35;;;;;;;6.33;5.03;;;;;;;-144.99;nan;52452.16;5009919;28;20842;-61
2021/05/17 03:06:03;;;;;;;7.00;4.83;;;;;;;-144.99;nan;52407.31;5017545;28;20214;-61
2021/05/17 03:08:42;;;;;;;6.97;5.37;;;;;;;-144.99;nan;52423.63;5008841;28;20273;-60
2021/05/17 03:11:13;;;;;;;5.07;3.67;;;;;;;-144.99;nan;52456.25;5013950;28;20230;-61
2021/05/17 03:13:40;;;;;;;6.20;4.43;;;;;;;-144.99;nan;52435.88;5011694;28;20285;-61
2021/05/17 03:16:13;;;;;;;6.73;5.40;;;;;;;-144.99;nan;52411.41;5011725;28;20789;-62
2021/05/17 03:18:43;;;;;;;10.00;5.73;;;;;;;-144.99;nan;52464.41;5005185;28;20231;-61
2021/05/17 03:21:19;;;;;;;6.33;4.63;;;;;;;-144.99;nan;52370.63;5010604;28;20202;-58
2021/05/17 03:23:45;;;;;;;9.87;6.97;;;;;;;-144.99;nan;52399.19;5012914;28;20214;-58
2021/05/17 03:26:14;;;;;;;7.47;4.57;;;;;;;-144.99;nan;52437.91;5010256;28;20214;-58
2021/05/17 03:28:43;;;;;;;5.20;4.00;;;;;;;-144.99;nan;52452.16;5009564;28;20293;-58
2021/05/17 03:31:09;;;;;;;6.53;3.93;;;;;;;-144.99;nan;52439.94;5010817;28;20222;-57
2021/05/17 03:33:41;;;;;;;6.87;4.23;;;;;;;-144.99;nan;52421.59;5011741;28;20207;-59
2021/05/17 03:36:08;;;;;;;7.30;4.40;;;;;;;-144.99;nan;52427.72;5016517;28;20589;-56
2021/05/17 03:38:35;;;;;;;6.93;5.73;;;;;;;-144.99;nan;52427.72;5013987;28;20276;-56
2021/05/17 03:41:01;;;;;;;8.20;4.53;;;;;;;-144.99;nan;52431.78;5022709;28;20214;-56
2021/05/17 03:43:33;;;;;;;7.90;5.13;;;;;;;-144.99;nan;52456.25;5014101;28;20218;-56
2021/05/17 03:45:59;;;;;;;7.97;5.80;;;;;;;-144.99;nan;52378.78;5017529;28;20256;-56
2021/05/17 03:48:31;;;;;;;7.23;5.03;;;;;;;-144.99;nan;52431.78;5021832;28;20647;-57
2021/05/17 03:50:57;;;;;;;9.37;4.37;;;;;;;-144.99;nan;52456.25;5014881;28;20242;-58
2021/05/17 03:53:24;;;;;;;7.17;5.17;;;;;;;-144.99;nan;52415.47;5017575;28;20214;-58
2021/05/17 03:55:50;;;;;;;7.63;5.40;;;;;;;-144.99;nan;52395.09;5019764;28;20573;-58
2021/05/17 03:58:16;;;;;;;5.53;3.77;;;;;;;-144.99;nan;52448.09;5019794;28;20222;-59
2021/05/17 04:00:48;;;;;;;10.07;4.93;;;;;;;-144.99;nan;52409.38;5016444;28;20206;-57
2021/05/17 04:03:19;;;;;;;5.40;4.73;;;;;;;-144.99;nan;52441.97;5023770;23;20214;-61
2021/05/17 04:06:03;;;;;;;8.77;4.50;;;;;;;-144.99;nan;52460.31;4998134;28;20246;-62
2021/05/17 04:13:57;;;;;;;7.00;4.97;;;;;;;-144.99;nan;52399.19;5001236;28;20222;-63
2021/05/17 04:16:29;;;;;;;6.30;4.43;;;;;;;-144.99;nan;52378.78;5002868;28;20200;-63
2021/05/17 04:18:55;;;;;;;6.83;5.13;;;;;;;-144.99;nan;52411.41;4998640;28;20235;-62
2021/05/17 04:21:21;;;;;;;5.23;4.13;;;;;;;-144.99;nan;52439.94;4995734;28;20672;-62
2021/05/17 04:23:48;;;;;;;5.57;4.20;;;;;;;-144.99;nan;52435.88;4993231;28;20204;-62
2021/05/17 04:26:14;;;;;;;5.90;4.50;;;;;;;-144.99;nan;52423.63;5005461;28;20269;-62
2021/05/17 04:28:42;;;;;;;9.50;5.30;;;;;;;-144.99;nan;52395.09;4992862;28;20231;-62
2021/05/17 04:31:08;;;;;;;10.37;7.10;;;;;;;-144.99;nan;52395.09;4992775;28;20231;-60
2021/05/17 04:33:37;;;;;;;7.00;4.80;;;;;;;-144.99;nan;52415.47;4991676;28;20208;-61
2021/05/17 04:36:09;;;;;;;8.13;4.17;;;;;;;-144.99;nan;52452.16;4995367;28;20211;-61
2021/05/17 04:38:38;;;;;;;9.03;4.63;;;;;;;-144.99;nan;52427.72;4998472;28;20582;-60
2021/05/17 04:41:05;;;;;;;7.30;5.27;;;;;;;-144.99;nan;52386.94;4995743;28;20218;-59
2021/05/17 04:43:31;;;;;;;6.93;3.97;;;;;;;-144.99;nan;52374.72;4992671;28;20207;-60
2021/05/17 04:45:57;;;;;;;7.03;4.97;;;;;;;-144.99;nan;52415.47;4993590;28;20208;-60
2021/05/17 04:48:26;;;;;;;7.80;5.47;;;;;;;-144.99;nan;52444.03;4993436;28;20290;-59
2021/05/17 04:50:52;;;;;;;8.00;5.33;;;;;;;-144.99;nan;52409.38;4997646;28;20231;-61
2021/05/17 04:53:18;;;;;;;8.47;4.33;;;;;;;-144.99;nan;52386.94;4992912;28;20203;-62
2021/05/17 04:55:44;;;;;;;6.67;5.00;;;;;;;-144.99;nan;52403.25;4992342;28;20724;-60
2021/05/17 04:58:11;;;;;;;8.67;5.00;;;;;;;-144.99;nan;52391.03;5003649;28;20277;-61
2021/05/17 05:00:40;;;;;;;5.40;3.83;;;;;;;-144.99;nan;52378.78;4993291;28;20211;-63
2021/05/17 05:03:08;;;;;;;8.67;4.40;;;;;;;-144.99;nan;52358.41;4995459;28;20208;-60
2021/05/17 05:05:40;;;;;;;8.23;4.33;;;;;;;-144.99;nan;52370.63;5000065;28;20306;-61
2021/05/17 05:08:11;;;;;;;9.10;5.50;;;;;;;-144.99;nan;52415.47;4993541;28;20231;-59
2021/05/17 05:10:40;;;;;;;7.30;6.57;;;;;;;-144.99;nan;52382.88;4999773;28;20227;-60
2021/05/17 05:13:09;;;;;;;8.37;5.37;;;;;;;-144.99;nan;52362.50;4992152;28;20207;-60
2021/05/17 05:15:36;;;;;;;12.17;6.67;;;;;;;-144.99;nan;52386.94;4998587;28;20262;-58
2021/05/17 05:18:02;;;;;;;10.73;6.63;;;;;;;-144.99;nan;52350.25;4992363;28;20216;-59
2021/05/17 05:20:33;;;;;;;9.23;5.80;;;;;;;-144.99;nan;52419.56;4993387;28;20239;-62
2021/05/17 05:23:05;;;;;;;8.03;6.03;;;;;;;-144.99;nan;52415.47;4992753;28;20233;-60
2021/05/17 05:25:48;;;;;;;11.23;7.47;;;;;;;-144.99;nan;52364.53;4992192;28;20208;-60
2021/05/17 05:28:20;;;;;;;8.87;6.30;;;;;;;-144.99;nan;52366.56;4990805;28;20231;-61
2021/05/17 05:30:57;;;;;;;7.63;5.47;;;;;;;-144.99;nan;52423.63;4992604;28;20219;-62
2021/05/17 05:33:23;;;;;;;10.23;5.43;;;;;;;-144.99;nan;52391.03;4992942;28;20210;-61
2021/05/17 05:35:52;;;;;;;7.93;5.67;;;;;;;-144.99;nan;52423.63;4994588;28;20605;-61
2021/05/17 05:38:18;;;;;;;8.27;5.20;;;;;;;-144.99;nan;52378.78;4997080;28;20219;-61
2021/05/17 05:40:47;;;;;;;13.30;5.53;;;;;;;-144.99;nan;52431.78;5000336;28;20593;-60
2021/05/17 05:43:18;;;;;;;17.13;8.90;;;;;;;-144.99;nan;52403.25;4991144;28;20219;-61
2021/05/17 05:45:47;;;;;;;6.93;5.20;;;;;;;-144.99;nan;52391.03;4996373;28;20215;-62
2021/05/17 05:48:14;;;;;;;10.40;6.10;;;;;;;-144.99;nan;52370.63;4991606;28;20319;-64
2021/05/17 05:50:45;;;;;;;6.27;4.53;;;;;;;-144.99;nan;52407.31;4993259;28;20251;-63
2021/05/17 05:53:15;;;;;;;8.90;5.67;;;;;;;-144.99;nan;52415.47;4997974;28;20211;-64
2021/05/17 05:55:41;;;;;;;6.90;5.70;;;;;;;-144.99;nan;52346.19;4991084;28;20278;-63
2021/05/17 05:58:14;;;;;;;13.47;6.10;;;;;;;-144.99;nan;52386.94;4996217;28;20242;-65
2021/05/17 06:00:46;;;;;;;7.77;5.93;;;;;;;-144.99;nan;52407.31;4994729;28;20199;-63
2021/05/17 06:03:15;;;;;;;7.53;5.77;;;;;;;-144.99;nan;52382.88;4988146;28;20215;-65
2021/05/17 06:05:45;;;;;;;7.87;5.20;;;;;;;-144.99;nan;52362.50;4997675;28;20211;-64
2021/05/17 06:08:13;;;;;;;8.33;6.87;;;;;;;-144.99;nan;52397.13;4992006;28;20226;-64
2021/05/17 06:10:40;;;;;;;8.67;6.90;;;;;;;-144.99;nan;52354.34;4995076;28;20227;-63
2021/05/17 06:13:06;;;;;;;11.43;8.87;;;;;;;-144.99;nan;52354.34;4993595;28;20215;-63
2021/05/17 06:15:39;;;;;;;11.33;6.37;;;;;;;-144.99;nan;52358.41;4991196;28;20265;-64
2021/05/17 06:18:09;;;;;;;10.23;6.70;;;;;;;-144.99;nan;52364.53;4990563;28;20235;-62
2021/05/17 06:20:39;;;;;;;6.67;5.03;;;;;;;-144.99;nan;52342.09;4998231;28;20261;-64
2021/05/17 06:23:10;;;;;;;9.97;6.37;;;;;;;-144.99;nan;52370.63;4990499;28;20212;-64
2021/05/17 06:25:36;;;;;;;8.20;5.57;;;;;;;-144.99;nan;52399.19;4994159;28;20207;-62
2021/05/17 06:28:06;;;;;;;11.20;6.73;;;;;;;-144.99;nan;52348.22;4991005;28;20207;-65
2021/05/17 06:30:42;;;;;;;9.73;6.87;;;;;;;-144.99;nan;52366.56;4992284;28;20724;-64
2021/05/17 06:33:09;;;;;;;9.23;5.53;;;;;;;-144.99;nan;52378.78;4993276;28;20251;-66
2021/05/17 06:35:43;;;;;;;7.83;5.50;;;;;;;-144.99;nan;52384.91;4991488;28;20211;-66
2021/05/17 06:38:10;;;;;;;7.93;6.50;;;;;;;-144.99;nan;52354.34;4993094;28;20234;-64
2021/05/17 06:40:36;;;;;;;8.37;6.50;;;;;;;-144.99;nan;52348.22;4995711;28;20214;-63
2021/05/17 06:43:06;;;;;;;10.57;6.77;;;;;;;-144.99;nan;52346.19;4993496;28;20207;-68
2021/05/17 06:45:36;;;;;;;9.27;5.80;;;;;;;-144.99;nan;52333.94;4996822;28;20215;-69
2021/05/17 06:48:04;;;;;;;7.77;5.93;;;;;;;-144.99;nan;52333.94;4997784;28;20277;-67
2021/05/17 06:50:31;;;;;;;11.33;8.37;;;;;;;-144.99;nan;52358.41;4996479;28;20211;-70
2021/05/17 06:53:03;;;;;;;8.60;5.90;;;;;;;-144.99;nan;52321.72;4998582;28;20275;-63
2021/05/17 06:55:38;;;;;;;13.10;4.27;;;;;;;-144.99;nan;52391.03;4992433;28;20200;-64
2021/05/17 06:58:19;;;;;;;10.73;5.27;;;;;;;-144.99;nan;52358.41;4993096;28;20294;-64
2021/05/17 07:00:46;;;;;;;11.10;4.43;;;;;;;-144.99;nan;52354.34;4990992;28;20580;-64
2021/05/17 07:03:15;;;;;;;8.27;5.73;;;;;;;-144.99;nan;52350.25;4987422;28;20208;-64
2021/05/17 07:05:46;;;;;;;8.20;3.63;;;;;;;-144.99;nan;52321.72;4992242;28;20678;-69
2021/05/17 07:13:42;;;;;;;5.20;3.77;;;;;;;-144.99;nan;52319.69;4996501;28;20242;-64
2021/05/17 07:16:08;;;;;;;9.90;4.90;;;;;;;-144.99;nan;52323.75;4990558;28;20203;-63
2021/05/17 07:18:37;;;;;;;3.43;2.80;;;;;;;-144.99;nan;52327.84;4991296;28;20236;-62
2021/05/17 07:23:48;;;;;;;6.03;3.47;;;;;;;-144.99;nan;52309.50;4990654;28;20734;-65
2021/05/17 07:26:17;;;;;;;16.07;7.37;;;;;;;-144.99;nan;52293.19;4993008;28;20202;-61
2021/05/17 07:28:46;;;;;;;5.43;3.23;;;;;;;-144.99;nan;52311.53;4995189;28;20248;-63
2021/05/17 07:31:12;;;;;;;15.27;5.47;;;;;;;-144.99;nan;52309.50;4991514;28;20610;-64
2021/05/17 07:33:39;;;;;;;5.93;3.13;;;;;;;-144.99;nan;52317.66;4991143;28;20211;-64
2021/05/17 07:36:12;;;;;;;5.60;3.30;;;;;;;-144.99;nan;52327.84;4992326;28;20211;-62
2021/05/17 07:38:42;;;;;;;9.97;2.90;;;;;;;-144.99;nan;52303.38;4990176;28;20237;-63
2021/05/17 07:41:11;;;;;;;8.33;3.10;;;;;;;-144.99;nan;52291.16;4993636;28;20208;-63
2021/05/17 07:43:41;;;;;;;8.90;3.77;;;;;;;-144.99;nan;52297.25;4990419;28;20670;-62
2021/05/17 07:46:10;;;;;;;9.10;3.13;;;;;;;-144.99;nan;52309.50;4992887;28;20216;-63
2021/05/17 07:51:20;;;;;;;10.83;4.13;;;;;;;-144.99;nan;52256.50;4984520;28;20223;-65
2021/05/17 07:53:49;;;;;;;7.07;4.23;;;;;;;-144.99;nan;52299.31;4996685;28;20258;-65
2021/05/17 07:56:16;;;;;;;9.30;3.93;;;;;;;-144.99;nan;52260.56;4995257;28;20207;-63
2021/05/17 07:58:46;;;;;;;7.73;3.23;;;;;;;-144.99;nan;52283.00;4989985;28;20248;-65
2021/05/17 08:01:17;;;;;;;9.47;4.20;;;;;;;-144.99;nan;52287.06;4986609;28;20231;-64
2021/05/17 08:03:46;;;;;;;6.30;2.93;;;;;;;-144.99;nan;52309.50;4990253;28;20216;-64
2021/05/17 08:06:12;;;;;;;6.60;3.20;;;;;;;-144.99;nan;52317.66;4996090;28;20330;-64
2021/05/17 08:08:41;;;;;;;6.70;3.60;;;;;;;-144.99;nan;52289.13;4985321;28;20232;-62
2021/05/17 08:11:13;;;;;;;5.20;3.43;;;;;;;-144.99;nan;52309.50;4981499;28;20265;-64
2021/05/17 08:13:43;;;;;;;9.40;3.40;;;;;;;-144.99;nan;52319.69;4983478;28;20227;-63
2021/05/17 08:16:10;;;;;;;3.67;2.37;;;;;;;-144.99;nan;52276.88;5000508;28;20207;-65
2021/05/17 08:18:37;;;;;;;6.50;2.87;;;;;;;-144.99;nan;52280.97;4981537;28;20297;-64
2021/05/17 08:21:03;;;;;;;6.00;2.90;;;;;;;-144.99;nan;52301.34;4994432;28;20275;-65
2021/05/17 08:23:30;;;;;;;4.90;2.87;;;;;;;-144.99;nan;52336.00;4993951;28;20219;-66
2021/05/17 08:25:59;;;;;;;8.47;5.27;;;;;;;-144.99;nan;52285.03;4993700;28;20218;-65
2021/05/17 08:28:28;;;;;;;4.10;2.63;;;;;;;-144.99;nan;52327.84;4996979;28;20231;-66
2021/05/17 08:30:58;;;;;;;5.87;2.57;;;;;;;-144.99;nan;52276.88;4995362;28;20237;-64
2021/05/17 08:33:25;;;;;;;6.80;3.20;;;;;;;-144.99;nan;52342.09;4988175;28;20634;-65
2021/05/17 08:35:55;;;;;;;6.57;2.63;;;;;;;-144.99;nan;52297.25;4999626;28;20438;-64
2021/05/17 08:38:24;;;;;;;6.70;2.80;;;;;;;-144.99;nan;52313.56;4993777;28;20239;-64
2021/05/17 08:40:50;;;;;;;8.13;2.93;;;;;;;-144.99;nan;52313.56;4994051;28;20212;-64
2021/05/17 08:43:19;;;;;;;5.80;3.87;;;;;;;-144.99;nan;52354.34;4992763;28;20582;-64
2021/05/17 08:45:50;;;;;;;6.77;3.47;;;;;;;-144.99;nan;52378.78;4982791;28;20222;-63
2021/05/17 08:48:23;;;;;;;13.13;2.93;;;;;;;-144.99;nan;52325.81;4993110;28;20235;-64
2021/05/17 08:50:55;;;;;;;4.77;2.53;;;;;;;-144.99;nan;52342.09;4993688;28;20247;-66
2021/05/17 08:53:21;;;;;;;4.03;2.00;;;;;;;-144.99;nan;52309.50;4992528;28;20206;-63
2021/05/17 08:55:50;;;;;;;8.13;2.33;;;;;;;-144.99;nan;52285.03;4992994;28;20211;-64
2021/05/17 08:58:22;;;;;;;3.43;1.50;;;;;;;-144.99;nan;52276.88;4992526;28;20231;-65
2021/05/17 09:00:51;;;;;;;9.63;2.27;;;;;;;-144.99;nan;52287.06;4993157;28;20204;-66
2021/05/17 09:03:21;;;;;;;8.50;3.30;;;;;;;-144.99;nan;52272.81;4992292;28;20207;-66
2021/05/17 09:05:48;;;;;;;3.70;2.17;;;;;;;-144.99;nan;52317.66;4995203;28;20212;-64
2021/05/17 09:08:15;;;;;;;5.33;1.50;;;;;;;-144.99;nan;52264.66;4992350;28;20229;-66
2021/05/17 09:10:41;;;;;;;2.23;1.23;;;;;;;-144.99;nan;52293.19;4992831;28;20207;-65
2021/05/17 09:13:17;;;;;;;5.20;1.13;;;;;;;-144.99;nan;52329.88;4992524;28;20575;-63
2021/05/17 09:15:46;;;;;;;3.53;1.53;;;;;;;-144.99;nan;52350.25;4992263;28;20634;-66
2021/05/17 09:18:18;;;;;;;5.80;1.60;;;;;;;-144.99;nan;52297.25;4990742;28;20240;-64
2021/05/17 09:20:50;;;;;;;3.93;1.37;;;;;;;-144.99;nan;52293.19;4992571;28;20289;-68
2021/05/17 09:23:18;;;;;;;8.27;2.10;;;;;;;-144.99;nan;52325.81;4984691;28;20288;-67
2021/05/17 09:26:07;;;;;;;2.93;1.37;;;;;;;-144.99;nan;52346.19;4992250;28;20204;-68
2021/05/17 09:28:35;;;;;;;4.93;2.57;;;;;;;-144.99;nan;52297.25;4989785;28;20255;-68
2021/05/17 09:31:04;;;;;;;3.30;1.60;;;;;;;-144.99;nan;52260.56;4992150;28;20229;-68
2021/05/17 09:33:42;;;;;;;2.93;1.67;;;;;;;-144.99;nan;52305.41;4988066;28;20214;-68
2021/05/17 09:36:27;;;;;;;9.00;2.87;;;;;;;-144.99;nan;52297.25;4986916;28;20222;-70
2021/05/17 09:38:58;;;;;;;2.90;1.50;;;;;;;-144.99;nan;52268.72;4997086;28;20784;-68
2021/05/17 09:41:43;;;;;;;5.77;2.20;;;;;;;-144.99;nan;52244.28;4992685;28;20208;-68
2021/05/17 09:44:15;;;;;;;3.43;1.20;;;;;;;-144.99;nan;52238.16;4985138;28;20684;-70
2021/05/17 09:47:02;;;;;;;3.73;1.60;;;;;;;-144.99;nan;52244.28;4990138;28;20677;-68
2021/05/17 09:49:37;;;;;;;5.10;2.07;;;;;;;-144.99;nan;52223.88;4991567;28;20231;-69
2021/05/17 09:52:18;;;;;;;3.07;1.37;;;;;;;-144.99;nan;52238.16;4992144;28;20261;-70
2021/05/17 09:54:53;;;;;;;5.63;2.67;;;;;;;-144.99;nan;52280.97;4991526;28;20882;-68
2021/05/17 09:57:21;;;;;;;3.63;1.80;;;;;;;-144.99;nan;52278.91;4992074;28;20269;-70
2021/05/17 09:59:48;;;;;;;8.83;2.00;;;;;;;-144.99;nan;52293.19;4991731;28;20235;-70
2021/05/17 10:02:39;;;;;;;2.73;1.93;;;;;;;-144.99;nan;52285.03;4993193;28;20206;-70
2021/05/17 10:05:27;;;;;;;5.07;1.40;;;;;;;-144.99;nan;52319.69;4991384;28;20211;-68
2021/05/17 10:07:58;;;;;;;4.57;2.00;;;;;;;-144.99;nan;52329.88;4988985;28;20243;-69
2021/05/17 10:10:30;;;;;;;3.97;2.03;;;;;;;-144.99;nan;52342.09;4986012;28;20212;-67
2021/05/17 10:12:59;;;;;;;4.03;1.70;;;;;;;-144.99;nan;52358.41;4990802;28;20227;-67
2021/05/17 10:15:29;;;;;;;4.93;2.60;;;;;;;-144.99;nan;52358.41;4991232;28;20222;-69
2021/05/17 10:17:59;;;;;;;6.23;2.80;;;;;;;-144.99;nan;52350.25;4991158;28;20290;-67
2021/05/17 10:20:34;;;;;;;8.37;3.77;;;;;;;-144.99;nan;52362.50;5023719;23;20663;-76
2021/05/17 10:23:07;;;;;;;5.93;3.27;;;;;;;-144.99;nan;52317.66;5019055;28;20237;-79
2021/05/17 10:25:41;;;;;;;10.60;3.77;;;;;;;-144.99;nan;52384.91;5015923;28;20211;-79
2021/05/17 10:28:20;;;;;;;6.60;3.27;;;;;;;-144.99;nan;52376.75;5015502;28;20282;-80
2021/05/17 10:31:00;;;;;;;6.43;3.87;;;;;;;-144.99;nan;52372.69;5015334;28;20210;-80
2021/05/17 10:33:32;;;;;;;6.57;4.30;;;;;;;-144.99;nan;52423.63;5012815;28;20234;-77
2021/05/17 10:36:07;;;;;;;10.10;4.57;;;;;;;-144.99;nan;52350.25;5011612;28;20211;-78
2021/05/17 10:38:52;;;;;;;7.03;4.33;;;;;;;-144.99;nan;52374.72;5009795;28;20304;-79
2021/05/17 10:41:48;;;;;;;7.20;4.20;;;;;;;-144.99;nan;52358.41;5015943;28;20232;-78
2021/05/17 10:44:36;;;;;;;3.83;2.50;;;;;;;-144.99;nan;52374.72;5012879;28;20272;-77
2021/05/17 10:47:07;;;;;;;2.93;1.70;;;;;;;-144.99;nan;52370.63;5014828;28;20203;-77
2021/05/17 10:49:42;;;;;;;4.13;1.33;;;;;;;-144.99;nan;52362.50;5014094;28;20210;-78
2021/05/17 10:52:37;;;;;;;2.87;1.17;;;;;;;-144.99;nan;52378.78;5016304;28;20225;-77
2021/05/17 10:55:15;;;;;;;3.27;1.07;;;;;;;-144.99;nan;52350.25;5016409;28;20241;-77
2021/05/17 10:58:07;;;;;;;3.33;1.27;;;;;;;-144.99;nan;52297.25;5018253;28;20213;-79
2021/05/17 11:00:39;;;;;;;5.17;2.67;;;;;;;-144.99;nan;52179.06;5020364;28;20240;-80
2021/05/17 11:03:21;;;;;;;5.23;2.50;;;;;;;-144.99;nan;52207.59;5016824;28;20677;-79
2021/05/17 11:06:00;;;;;;;6.40;3.67;;;;;;;-144.99;nan;52162.75;5020948;28;20222;-78
2021/05/17 11:08:35;;;;;;;9.03;3.63;;;;;;;-144.99;nan;52174.97;5008789;28;20202;-79
2021/05/17 11:11:17;;;;;;;8.57;4.13;;;;;;;-144.99;nan;52138.28;5017596;28;20233;-80
2021/05/17 11:13:52;;;;;;;6.30;2.50;;;;;;;-144.99;nan;52121.97;5015358;28;20227;-78
2021/05/17 11:16:34;;;;;;;6.13;3.73;;;;;;;-144.99;nan;52142.38;5016965;28;20281;-79
2021/05/17 11:19:23;;;;;;;10.07;5.00;;;;;;;-144.99;nan;52130.13;5016805;28;20567;-78
2021/05/17 11:22:08;;;;;;;3.43;1.60;;;;;;;-144.99;nan;52211.66;5015103;28;20257;-80
2021/05/17 11:24:40;;;;;;;3.43;2.30;;;;;;;-144.99;nan;52272.81;5014789;28;20234;-77
2021/05/17 11:27:16;;;;;;;2.13;1.40;;;;;;;-144.99;nan;52285.03;5016147;28;20255;-78
2021/05/17 11:29:50;;;;;;;6.43;2.67;;;;;;;-144.99;nan;52346.19;5017654;28;20254;-80
2021/05/17 11:32:34;;;;;;;8.40;2.80;;;;;;;-144.99;nan;52325.81;5009173;28;20379;-76
2021/05/17 11:35:12;;;;;;;3.93;2.57;;;;;;;-144.99;nan;52358.41;5015405;28;20227;-78
2021/05/17 11:38:11;;;;;;;8.07;4.17;;;;;;;-144.99;nan;52358.41;5014966;28;20207;-79
2021/05/17 11:40:53;;;;;;;11.90;5.07;;;;;;;-144.99;nan;52403.25;5012108;28;20203;-79
2021/05/17 11:43:32;;;;;;;10.37;5.37;;;;;;;-144.99;nan;52395.09;5012567;28;20222;-76
2021/05/17 11:46:03;;;;;;;11.83;6.13;;;;;;;-144.99;nan;52386.94;5015504;28;20284;-76
2021/05/17 11:48:38;;;;;;;6.77;5.33;;;;;;;-144.99;nan;52370.63;5018923;28;20198;-79
2021/05/17 11:51:13;;;;;;;6.00;4.90;;;;;;;-144.99;nan;52395.09;5017849;28;20209;-80
2021/05/17 11:53:51;;;;;;;9.23;3.50;;;;;;;-144.99;nan;52391.03;5020459;28;20378;-78
2021/05/17 11:59:16;;;;;;;6.97;5.50;;;;;;;-144.99;nan;52313.56;5220791;23;20724;-77
2021/05/17 12:01:53;;;;;;;6.10;3.13;;;;;;;-144.99;nan;52325.81;5020864;28;20235;-78
2021/05/17 12:04:33;;;;;;;5.90;3.60;;;;;;;-144.99;nan;52338.03;5015329;28;20277;-75
2021/05/17 12:07:09;;;;;;;6.70;4.67;;;;;;;-144.99;nan;52301.34;5014899;28;20682;-77
2021/05/17 12:09:45;;;;;;;7.70;3.33;;;;;;;-144.99;nan;52258.53;5014020;28;20210;-76